createdAt,value
2019-04-04T00:00:57.605Z,0.00
2019-04-04T00:01:57.598Z,0.00
2019-04-04T00:02:57.575Z,0.00
2019-04-04T00:03:57.538Z,0.00
2019-04-04T00:04:57.845Z,0.00
2019-04-04T00:05:57.511Z,0.00
2019-04-04T00:06:58.094Z,0.00
2019-04-04T00:07:58.101Z,0.00
2019-04-04T00:08:57.481Z,0.00
2019-04-04T00:09:57.465Z,0.00
2019-04-04T00:10:57.462Z,0.00
2019-04-04T00:11:57.487Z,0.00
2019-04-04T00:12:57.453Z,0.00
2019-04-04T00:13:57.445Z,0.00
2019-04-04T00:14:57.430Z,0.00
2019-04-04T00:15:57.416Z,0.00
2019-04-04T00:16:57.414Z,0.00
2019-04-04T00:17:57.399Z,0.00
2019-04-04T00:18:59.060Z,0.00
2019-04-04T00:19:59.008Z,0.00
2019-04-04T00:20:57.371Z,0.00
2019-04-04T00:21:57.376Z,0.00
2019-04-04T00:22:57.328Z,0.00
2019-04-04T00:23:57.316Z,0.00
2019-04-04T00:24:57.324Z,0.00
2019-04-04T00:25:57.295Z,0.00
2019-04-04T00:26:57.323Z,0.00
2019-04-04T00:27:57.310Z,0.00
2019-04-04T00:28:57.290Z,0.00
2019-04-04T00:29:57.250Z,0.00
2019-04-04T00:30:57.256Z,0.00
2019-04-04T00:31:57.247Z,0.00
2019-04-04T00:32:57.243Z,0.00
2019-04-04T00:33:57.241Z,0.00
2019-04-04T00:34:57.822Z,0.00
2019-04-04T00:35:57.186Z,0.00
2019-04-04T00:36:57.171Z,0.00
2019-04-04T00:37:57.183Z,0.00
2019-04-04T00:38:57.150Z,0.00
2019-04-04T00:39:57.138Z,0.00
2019-04-04T00:40:57.147Z,0.00
2019-04-04T00:41:57.131Z,0.00
2019-04-04T00:42:57.146Z,0.00
2019-04-04T00:43:57.117Z,0.00
2019-04-04T00:44:57.083Z,0.00
2019-04-04T00:45:57.084Z,0.00
2019-04-04T00:46:57.083Z,0.00
2019-04-04T00:47:57.088Z,0.00
2019-04-04T00:48:57.055Z,0.00
2019-04-04T00:49:57.037Z,0.00
2019-04-04T00:50:57.023Z,0.00
2019-04-04T00:51:57.023Z,0.00
2019-04-04T00:52:57.031Z,0.00
2019-04-04T00:53:56.987Z,0.00
2019-04-04T00:54:56.994Z,0.00
2019-04-04T00:55:56.999Z,0.00
2019-04-04T00:56:56.971Z,0.00
2019-04-04T00:57:56.988Z,0.00
2019-04-04T00:58:56.932Z,0.00
2019-04-04T00:59:56.923Z,0.00
2019-04-04T01:00:56.946Z,0.00
2019-04-04T01:01:57.544Z,0.00
2019-04-04T01:02:58.282Z,0.00
2019-04-04T01:03:56.880Z,0.00
2019-04-04T01:04:56.867Z,0.00
2019-04-04T01:05:56.873Z,0.00
2019-04-04T01:06:56.870Z,0.00
2019-04-04T01:07:56.882Z,0.00
2019-04-04T01:08:56.844Z,0.00
2019-04-04T01:09:56.835Z,0.00
2019-04-04T01:10:56.809Z,0.00
2019-04-04T01:11:56.843Z,0.00
2019-04-04T01:12:56.809Z,0.00
2019-04-04T01:13:57.852Z,0.00
2019-04-04T01:14:58.090Z,0.00
2019-04-04T01:15:56.750Z,0.00
2019-04-04T01:16:56.758Z,0.00
2019-04-04T01:18:00.521Z,0.00
2019-04-04T01:18:56.744Z,0.00
2019-04-04T01:19:56.716Z,0.00
2019-04-04T01:20:56.695Z,0.00
2019-04-04T01:21:56.713Z,0.00
2019-04-04T01:22:56.766Z,0.00
2019-04-04T01:23:58.317Z,0.00
2019-04-04T01:24:56.665Z,0.00
2019-04-04T01:25:56.655Z,0.00
2019-04-04T01:26:56.657Z,0.00
2019-04-04T01:27:56.654Z,0.00
2019-04-04T01:28:56.626Z,0.00
2019-04-04T01:29:56.617Z,0.00
2019-04-04T01:30:56.593Z,0.00
2019-04-04T01:31:56.595Z,0.00
2019-04-04T01:32:56.599Z,0.00
2019-04-04T01:33:56.585Z,0.00
2019-04-04T01:34:56.572Z,0.00
2019-04-04T01:35:56.522Z,0.00
2019-04-04T01:36:57.133Z,0.00
2019-04-04T01:37:58.257Z,0.00
2019-04-04T01:38:58.080Z,0.00
2019-04-04T01:39:56.514Z,0.00
2019-04-04T01:40:56.482Z,0.00
2019-04-04T01:41:56.465Z,0.00
2019-04-04T01:42:56.494Z,0.00
2019-04-04T01:44:04.785Z,0.00
2019-04-04T01:44:57.441Z,0.00
2019-04-04T01:45:56.447Z,0.00
2019-04-04T01:46:56.427Z,0.00
2019-04-04T01:47:56.440Z,0.00
2019-04-04T01:48:56.412Z,0.00
2019-04-04T01:49:56.395Z,0.00
2019-04-04T01:50:56.386Z,0.00
2019-04-04T01:51:57.695Z,0.00
2019-04-04T01:52:58.869Z,0.00
2019-04-04T01:53:56.325Z,0.00
2019-04-04T01:54:56.340Z,0.00
2019-04-04T01:55:56.337Z,0.00
2019-04-04T01:56:56.307Z,0.00
2019-04-04T01:57:56.312Z,0.00
2019-04-04T01:58:56.320Z,0.00
2019-04-04T01:59:56.298Z,0.00
2019-04-04T02:00:56.260Z,0.00
2019-04-04T02:01:56.252Z,0.00
2019-04-04T02:02:56.251Z,0.00
2019-04-04T02:03:56.257Z,0.00
2019-04-04T02:04:56.497Z,0.00
2019-04-04T02:05:58.120Z,0.00
2019-04-04T02:06:58.874Z,0.00
2019-04-04T02:07:56.202Z,0.00
2019-04-04T02:08:56.213Z,0.00
2019-04-04T02:09:56.177Z,0.00
2019-04-04T02:10:56.176Z,0.00
2019-04-04T02:11:56.132Z,0.00
2019-04-04T02:12:56.138Z,0.00
2019-04-04T02:13:56.163Z,0.00
2019-04-04T02:14:56.130Z,0.00
2019-04-04T02:15:56.095Z,0.00
2019-04-04T02:16:56.095Z,0.00
2019-04-04T02:17:56.088Z,0.00
2019-04-04T02:18:56.083Z,0.00
2019-04-04T02:19:56.468Z,0.00
2019-04-04T02:20:57.845Z,0.00
2019-04-04T02:21:56.048Z,0.00
2019-04-04T02:22:56.012Z,0.00
2019-04-04T02:23:56.037Z,0.00
2019-04-04T02:24:56.009Z,0.00
2019-04-04T02:25:55.977Z,0.00
2019-04-04T02:26:55.977Z,0.00
2019-04-04T02:27:55.963Z,0.00
2019-04-04T02:28:55.989Z,0.00
2019-04-04T02:29:55.957Z,0.00
2019-04-04T02:30:55.935Z,0.00
2019-04-04T02:31:55.942Z,0.00
2019-04-04T02:32:59.457Z,0.00
2019-04-04T02:33:55.936Z,0.00
2019-04-04T02:34:55.898Z,0.00
2019-04-04T02:35:55.899Z,0.00
2019-04-04T02:36:55.876Z,0.00
2019-04-04T02:37:56.187Z,0.00
2019-04-04T02:38:57.577Z,0.00
2019-04-04T02:39:55.862Z,0.00
2019-04-04T02:40:55.828Z,0.00
2019-04-04T02:41:55.807Z,0.00
2019-04-04T02:42:55.806Z,0.00
2019-04-04T02:43:59.405Z,0.00
2019-04-04T02:44:55.774Z,0.00
2019-04-04T02:45:55.763Z,0.00
2019-04-04T02:46:55.766Z,0.00
2019-04-04T02:47:55.751Z,0.00
2019-04-04T02:48:56.286Z,0.00
2019-04-04T02:49:55.742Z,0.00
2019-04-04T02:50:55.725Z,0.00
2019-04-04T02:51:55.723Z,0.00
2019-04-04T02:52:55.699Z,0.00
2019-04-04T02:53:55.721Z,0.00
2019-04-04T02:54:58.177Z,0.00
2019-04-04T02:55:55.671Z,0.00
2019-04-04T02:56:55.688Z,0.00
2019-04-04T02:57:55.652Z,0.00
2019-04-04T02:58:55.620Z,0.00
2019-04-04T02:59:55.640Z,0.00
2019-04-04T03:00:59.333Z,0.00
2019-04-04T03:01:55.617Z,0.00
2019-04-04T03:02:55.584Z,0.00
2019-04-04T03:03:55.572Z,0.00
2019-04-04T03:04:55.611Z,0.00
2019-04-04T03:05:55.543Z,0.00
2019-04-04T03:06:58.497Z,0.00
2019-04-04T03:07:55.540Z,0.00
2019-04-04T03:08:55.571Z,0.00
2019-04-04T03:09:55.542Z,0.00
2019-04-04T03:10:55.520Z,0.00
2019-04-04T03:11:55.478Z,0.00
2019-04-04T03:12:57.988Z,0.00
2019-04-04T03:13:55.471Z,0.00
2019-04-04T03:14:55.481Z,0.00
2019-04-04T03:15:55.436Z,0.00
2019-04-04T03:16:56.918Z,0.00
2019-04-04T03:17:55.436Z,0.00
2019-04-04T03:18:55.428Z,0.00
2019-04-04T03:19:55.445Z,0.00
2019-04-04T03:20:55.415Z,0.00
2019-04-04T03:21:56.116Z,0.00
2019-04-04T03:23:00.156Z,0.00
2019-04-04T03:23:56.346Z,0.00
2019-04-04T03:24:55.381Z,0.00
2019-04-04T03:25:55.336Z,0.00
2019-04-04T03:26:55.361Z,0.00
2019-04-04T03:27:57.785Z,0.00
2019-04-04T03:28:55.303Z,0.00
2019-04-04T03:29:55.307Z,0.00
2019-04-04T03:31:02.471Z,0.00
2019-04-04T03:31:56.285Z,0.00
2019-04-04T03:32:55.760Z,0.00
2019-04-04T03:33:55.238Z,0.00
2019-04-04T03:34:55.272Z,0.00
2019-04-04T03:35:55.228Z,0.00
2019-04-04T03:36:55.214Z,0.00
2019-04-04T03:37:55.202Z,0.00
2019-04-04T03:38:55.198Z,0.00
2019-04-04T03:39:55.227Z,0.00
2019-04-04T03:40:57.936Z,0.00
2019-04-04T03:41:55.168Z,0.00
2019-04-04T03:42:55.153Z,0.00
2019-04-04T03:43:55.159Z,0.00
2019-04-04T03:44:55.152Z,0.00
2019-04-04T03:45:55.133Z,0.00
2019-04-04T03:46:55.110Z,0.00
2019-04-04T03:47:55.109Z,0.00
2019-04-04T03:48:55.079Z,0.00
2019-04-04T03:49:57.571Z,0.00
2019-04-04T03:50:57.416Z,0.00
2019-04-04T03:51:55.068Z,0.00
2019-04-04T03:52:55.047Z,0.00
2019-04-04T03:53:55.031Z,0.00
2019-04-04T03:54:56.206Z,0.00
2019-04-04T03:55:55.042Z,0.00
2019-04-04T03:56:54.998Z,0.00
2019-04-04T03:57:55.333Z,0.00
2019-04-04T03:58:54.990Z,0.00
2019-04-04T03:59:54.971Z,0.00
2019-04-04T04:00:54.993Z,0.00
2019-04-04T04:01:54.945Z,0.00
2019-04-04T04:02:54.967Z,0.00
2019-04-04T04:03:55.701Z,0.00
2019-04-04T04:04:54.926Z,0.00
2019-04-04T04:05:54.935Z,0.00
2019-04-04T04:06:54.915Z,0.00
2019-04-04T04:07:54.910Z,0.00
2019-04-04T04:08:55.222Z,0.00
2019-04-04T04:09:59.265Z,0.00
2019-04-04T04:10:55.879Z,0.00
2019-04-04T04:11:54.861Z,0.00
2019-04-04T04:12:54.830Z,0.00
2019-04-04T04:13:54.821Z,0.00
2019-04-04T04:14:55.170Z,0.00
2019-04-04T04:15:54.822Z,0.00
2019-04-04T04:16:54.786Z,0.00
2019-04-04T04:17:54.773Z,0.00
2019-04-04T04:18:55.455Z,0.00
2019-04-04T04:19:54.760Z,0.00
2019-04-04T04:20:54.799Z,0.00
2019-04-04T04:21:54.759Z,0.00
2019-04-04T04:22:54.724Z,0.00
2019-04-04T04:23:57.193Z,0.00
2019-04-04T04:24:54.715Z,0.00
2019-04-04T04:25:54.716Z,0.00
2019-04-04T04:26:54.703Z,0.00
2019-04-04T04:27:54.669Z,0.00
2019-04-04T04:28:54.640Z,0.00
2019-04-04T04:29:54.650Z,0.00
2019-04-04T04:30:54.703Z,0.00
2019-04-04T04:31:54.643Z,0.00
2019-04-04T04:32:57.046Z,0.00
2019-04-04T04:33:54.603Z,0.00
2019-04-04T04:34:54.596Z,0.00
2019-04-04T04:35:54.598Z,0.00
2019-04-04T04:36:54.577Z,0.00
2019-04-04T04:37:54.564Z,0.00
2019-04-04T04:38:58.642Z,0.00
2019-04-04T04:39:55.538Z,0.00
2019-04-04T04:40:54.576Z,0.00
2019-04-04T04:41:54.566Z,0.00
2019-04-04T04:42:54.503Z,0.00
2019-04-04T04:43:54.537Z,0.00
2019-04-04T04:44:54.479Z,0.00
2019-04-04T04:45:54.506Z,0.00
2019-04-04T04:46:54.482Z,0.00
2019-04-04T04:47:57.047Z,0.00
2019-04-04T04:48:54.456Z,0.00
2019-04-04T04:49:55.385Z,0.00
2019-04-04T04:50:54.445Z,0.00
2019-04-04T04:51:54.416Z,0.00
2019-04-04T04:52:54.405Z,0.00
2019-04-04T04:53:54.386Z,0.00
2019-04-04T04:54:54.670Z,0.00
2019-04-04T04:55:54.379Z,0.00
2019-04-04T04:56:54.387Z,0.00
2019-04-04T04:57:56.290Z,0.00
2019-04-04T04:58:55.654Z,0.00
2019-04-04T04:59:54.354Z,0.00
2019-04-04T05:00:54.331Z,0.00
2019-04-04T05:01:54.310Z,0.00
2019-04-04T05:02:54.292Z,0.00
2019-04-04T05:03:56.563Z,0.00
2019-04-04T05:04:54.273Z,0.00
2019-04-04T05:05:54.286Z,0.00
2019-04-04T05:06:54.272Z,0.00
2019-04-04T05:07:54.991Z,0.00
2019-04-04T05:08:54.218Z,0.00
2019-04-04T05:09:54.228Z,5.62
2019-04-04T05:10:54.217Z,5.62
2019-04-04T05:11:54.217Z,5.62
2019-04-04T05:12:54.218Z,5.62
2019-04-04T05:13:54.163Z,5.62
2019-04-04T05:14:54.169Z,5.62
2019-04-04T05:15:54.178Z,5.62
2019-04-04T05:16:54.135Z,5.62
2019-04-04T05:17:54.136Z,5.62
2019-04-04T05:18:54.115Z,5.62
2019-04-04T05:19:54.125Z,5.62
2019-04-04T05:20:56.046Z,5.62
2019-04-04T05:21:54.089Z,5.62
2019-04-04T05:22:54.081Z,5.62
2019-04-04T05:23:54.059Z,5.62
2019-04-04T05:25:07.281Z,5.62
2019-04-04T05:25:55.111Z,5.62
2019-04-04T05:26:54.029Z,5.62
2019-04-04T05:27:54.077Z,11.25
2019-04-04T05:28:56.808Z,11.25
2019-04-04T05:29:53.998Z,11.25
2019-04-04T05:30:54.014Z,11.25
2019-04-04T05:31:53.972Z,11.25
2019-04-04T05:32:56.380Z,11.25
2019-04-04T05:33:53.967Z,11.25
2019-04-04T05:34:53.985Z,16.88
2019-04-04T05:35:53.959Z,16.88
2019-04-04T05:36:53.942Z,16.88
2019-04-04T05:37:53.952Z,22.50
2019-04-04T05:38:53.909Z,22.50
2019-04-04T05:39:55.304Z,22.50
2019-04-04T05:40:57.832Z,22.50
2019-04-04T05:41:53.884Z,22.50
2019-04-04T05:42:53.841Z,22.50
2019-04-04T05:43:53.839Z,22.50
2019-04-04T05:44:53.831Z,28.12
2019-04-04T05:45:53.828Z,28.12
2019-04-04T05:46:53.843Z,28.12
2019-04-04T05:47:55.927Z,28.12
2019-04-04T05:48:53.807Z,28.12
2019-04-04T05:49:53.805Z,28.12
2019-04-04T05:50:53.768Z,28.12
2019-04-04T05:51:53.794Z,33.75
2019-04-04T05:52:53.777Z,33.75
2019-04-04T05:53:53.731Z,33.75
2019-04-04T05:54:53.815Z,33.75
2019-04-04T05:55:53.751Z,33.75
2019-04-04T05:56:53.741Z,33.75
2019-04-04T05:57:53.717Z,33.75
2019-04-04T05:58:53.820Z,33.75
2019-04-04T05:59:55.933Z,39.38
2019-04-04T06:00:53.659Z,45.00
2019-04-04T06:01:53.685Z,45.00
2019-04-04T06:02:53.650Z,45.00
2019-04-04T06:03:53.650Z,50.62
2019-04-04T06:04:55.360Z,56.25
2019-04-04T06:05:53.633Z,61.88
2019-04-04T06:06:55.623Z,67.50
2019-04-04T06:07:53.580Z,73.12
2019-04-04T06:08:53.578Z,78.75
2019-04-04T06:09:53.897Z,84.38
2019-04-04T06:10:53.566Z,90.00
2019-04-04T06:11:53.859Z,90.00
2019-04-04T06:12:54.366Z,90.00
2019-04-04T06:13:53.553Z,90.00
2019-04-04T06:14:53.550Z,90.00
2019-04-04T06:15:53.542Z,90.00
2019-04-04T06:16:53.526Z,84.38
2019-04-04T06:17:53.507Z,78.75
2019-04-04T06:18:53.488Z,73.12
2019-04-04T06:19:53.481Z,73.12
2019-04-04T06:20:53.458Z,67.50
2019-04-04T06:21:53.494Z,67.50
2019-04-04T06:22:53.411Z,67.50
2019-04-04T06:23:55.665Z,67.50
2019-04-04T06:24:53.404Z,73.12
2019-04-04T06:25:53.421Z,73.12
2019-04-04T06:26:53.434Z,73.12
2019-04-04T06:27:53.370Z,78.75
2019-04-04T06:28:53.378Z,78.75
2019-04-04T06:29:53.338Z,78.75
2019-04-04T06:30:54.259Z,84.38
2019-04-04T06:31:53.358Z,84.38
2019-04-04T06:32:53.316Z,84.38
2019-04-04T06:33:53.332Z,84.38
2019-04-04T06:34:56.591Z,90.00
2019-04-04T06:35:53.286Z,95.62
2019-04-04T06:36:53.326Z,95.62
2019-04-04T06:37:53.285Z,106.88
2019-04-04T06:38:53.957Z,106.88
2019-04-04T06:39:54.440Z,106.88
2019-04-04T06:40:53.237Z,112.50
2019-04-04T06:41:53.297Z,118.12
2019-04-04T06:42:53.274Z,123.75
2019-04-04T06:43:53.204Z,129.38
2019-04-04T06:44:54.315Z,135.00
2019-04-04T06:45:53.211Z,135.00
2019-04-04T06:46:53.496Z,135.00
2019-04-04T06:47:53.177Z,135.00
2019-04-04T06:48:53.154Z,140.62
2019-04-04T06:49:53.132Z,151.88
2019-04-04T06:50:53.132Z,157.50
2019-04-04T06:51:53.150Z,151.88
2019-04-04T06:52:53.121Z,146.25
2019-04-04T06:53:53.694Z,140.62
2019-04-04T06:54:53.094Z,140.62
2019-04-04T06:55:53.087Z,140.62
2019-04-04T06:56:53.155Z,140.62
2019-04-04T06:57:53.063Z,140.62
2019-04-04T06:58:53.046Z,135.00
2019-04-04T06:59:53.031Z,123.75
2019-04-04T07:00:53.015Z,118.12
2019-04-04T07:01:53.054Z,106.88
2019-04-04T07:02:55.153Z,101.25
2019-04-04T07:03:52.965Z,101.25
2019-04-04T07:04:52.980Z,101.25
2019-04-04T07:05:52.960Z,95.62
2019-04-04T07:06:52.998Z,95.62
2019-04-04T07:07:52.955Z,95.62
2019-04-04T07:08:52.932Z,101.25
2019-04-04T07:09:52.931Z,101.25
2019-04-04T07:10:58.175Z,106.88
2019-04-04T07:11:53.948Z,106.88
2019-04-04T07:13:04.726Z,112.50
2019-04-04T07:13:53.876Z,112.50
2019-04-04T07:14:52.864Z,112.50
2019-04-04T07:16:06.250Z,112.50
2019-04-04T07:16:53.926Z,112.50
2019-04-04T07:17:52.897Z,112.50
2019-04-04T07:18:52.821Z,112.50
2019-04-04T07:19:52.820Z,112.50
2019-04-04T07:20:52.799Z,112.50
2019-04-04T07:21:52.790Z,118.12
2019-04-04T07:22:55.657Z,129.38
2019-04-04T07:23:52.761Z,140.62
2019-04-04T07:24:52.755Z,146.25
2019-04-04T07:25:53.517Z,163.12
2019-04-04T07:26:52.734Z,174.38
2019-04-04T07:27:52.755Z,174.38
2019-04-04T07:28:54.006Z,168.75
2019-04-04T07:29:52.676Z,163.12
2019-04-04T07:30:54.568Z,163.12
2019-04-04T07:31:52.669Z,163.12
2019-04-04T07:32:52.687Z,151.88
2019-04-04T07:33:52.651Z,146.25
2019-04-04T07:34:52.620Z,140.62
2019-04-04T07:35:52.677Z,140.62
2019-04-04T07:36:52.610Z,146.25
2019-04-04T07:37:56.633Z,146.25
2019-04-04T07:38:52.600Z,146.25
2019-04-04T07:39:52.592Z,146.25
2019-04-04T07:40:52.618Z,146.25
2019-04-04T07:41:52.601Z,151.88
2019-04-04T07:42:52.687Z,151.88
2019-04-04T07:43:52.572Z,151.88
2019-04-04T07:44:54.444Z,151.88
2019-04-04T07:45:55.170Z,157.50
2019-04-04T07:46:53.514Z,163.12
2019-04-04T07:47:52.540Z,163.12
2019-04-04T07:48:52.490Z,157.50
2019-04-04T07:49:53.210Z,151.88
2019-04-04T07:50:52.506Z,151.88
2019-04-04T07:51:52.638Z,157.50
2019-04-04T07:52:52.791Z,168.75
2019-04-04T07:53:53.042Z,168.75
2019-04-04T07:54:52.476Z,174.38
2019-04-04T07:55:53.051Z,168.75
2019-04-04T07:56:59.495Z,168.75
2019-04-04T07:57:52.437Z,168.75
2019-04-04T07:58:52.370Z,168.75
2019-04-04T07:59:52.382Z,168.75
2019-04-04T08:00:52.367Z,168.75
2019-04-04T08:01:52.345Z,168.75
2019-04-04T08:02:52.406Z,174.38
2019-04-04T08:03:52.374Z,174.38
2019-04-04T08:04:52.394Z,180.00
2019-04-04T08:05:52.328Z,185.62
2019-04-04T08:06:52.308Z,185.62
2019-04-04T08:07:52.298Z,191.25
2019-04-04T08:08:52.307Z,191.25
2019-04-04T08:09:52.258Z,191.25
2019-04-04T08:10:52.259Z,191.25
2019-04-04T08:11:52.258Z,191.25
2019-04-04T08:12:52.229Z,191.25
2019-04-04T08:13:52.257Z,196.88
2019-04-04T08:14:53.211Z,196.88
2019-04-04T08:15:52.198Z,196.88
2019-04-04T08:16:52.201Z,196.88
2019-04-04T08:17:52.185Z,196.88
2019-04-04T08:18:52.173Z,202.50
2019-04-04T08:19:59.492Z,208.12
2019-04-04T08:20:53.145Z,196.88
2019-04-04T08:21:52.143Z,196.88
2019-04-04T08:22:52.379Z,191.25
2019-04-04T08:23:52.168Z,191.25
2019-04-04T08:24:52.063Z,191.25
2019-04-04T08:25:52.073Z,196.88
2019-04-04T08:26:52.088Z,196.88
2019-04-04T08:27:52.056Z,196.88
2019-04-04T08:28:52.061Z,191.25
2019-04-04T08:29:52.049Z,185.62
2019-04-04T08:30:52.033Z,168.75
2019-04-04T08:31:52.025Z,163.12
2019-04-04T08:32:52.368Z,157.50
2019-04-04T08:33:52.057Z,151.88
2019-04-04T08:34:51.984Z,151.88
2019-04-04T08:35:51.984Z,157.50
2019-04-04T08:36:51.983Z,163.12
2019-04-04T08:37:53.509Z,174.38
2019-04-04T08:38:52.226Z,180.00
2019-04-04T08:39:51.933Z,180.00
2019-04-04T08:40:51.913Z,185.62
2019-04-04T08:41:52.503Z,185.62
2019-04-04T08:42:52.271Z,191.25
2019-04-04T08:43:51.904Z,191.25
2019-04-04T08:44:52.049Z,191.25
2019-04-04T08:45:51.893Z,196.88
2019-04-04T08:46:51.848Z,196.88
2019-04-04T08:47:51.918Z,196.88
2019-04-04T08:48:51.880Z,196.88
2019-04-04T08:49:51.871Z,196.88
2019-04-04T08:50:51.805Z,196.88
2019-04-04T08:51:51.799Z,196.88
2019-04-04T08:52:51.790Z,191.25
2019-04-04T08:53:51.825Z,191.25
2019-04-04T08:54:51.781Z,185.62
2019-04-04T08:55:51.756Z,185.62
2019-04-04T08:56:52.089Z,180.00
2019-04-04T08:57:51.745Z,174.38
2019-04-04T08:58:51.917Z,168.75
2019-04-04T08:59:51.718Z,174.38
2019-04-04T09:00:51.930Z,180.00
2019-04-04T09:01:51.714Z,185.62
2019-04-04T09:02:51.700Z,196.88
2019-04-04T09:03:51.676Z,208.12
2019-04-04T09:04:51.759Z,213.75
2019-04-04T09:05:51.757Z,219.38
2019-04-04T09:06:51.662Z,219.38
2019-04-04T09:07:51.776Z,225.00
2019-04-04T09:08:51.640Z,236.25
2019-04-04T09:09:51.687Z,247.50
2019-04-04T09:10:51.587Z,253.12
2019-04-04T09:11:51.602Z,253.12
2019-04-04T09:12:51.590Z,258.75
2019-04-04T09:13:51.627Z,264.38
2019-04-04T09:14:51.554Z,270.00
2019-04-04T09:15:51.761Z,270.00
2019-04-04T09:16:51.511Z,264.38
2019-04-04T09:17:51.521Z,264.38
2019-04-04T09:18:52.664Z,264.38
2019-04-04T09:19:51.502Z,264.38
2019-04-04T09:20:51.469Z,264.38
2019-04-04T09:21:51.522Z,258.75
2019-04-04T09:22:51.448Z,264.38
2019-04-04T09:23:51.476Z,264.38
2019-04-04T09:24:51.472Z,264.38
2019-04-04T09:25:51.418Z,264.38
2019-04-04T09:26:51.414Z,253.12
2019-04-04T09:27:51.397Z,247.50
2019-04-04T09:28:51.414Z,236.25
2019-04-04T09:29:51.408Z,225.00
2019-04-04T09:30:51.378Z,219.38
2019-04-04T09:31:51.362Z,213.75
2019-04-04T09:32:51.349Z,213.75
2019-04-04T09:33:51.339Z,208.12
2019-04-04T09:34:51.365Z,202.50
2019-04-04T09:35:51.313Z,202.50
2019-04-04T09:36:51.302Z,202.50
2019-04-04T09:37:51.283Z,202.50
2019-04-04T09:38:51.269Z,202.50
2019-04-04T09:39:51.319Z,202.50
2019-04-04T09:40:51.294Z,202.50
2019-04-04T09:41:51.254Z,202.50
2019-04-04T09:42:51.259Z,208.12
2019-04-04T09:43:51.237Z,213.75
2019-04-04T09:44:51.238Z,225.00
2019-04-04T09:45:51.247Z,236.25
2019-04-04T09:47:04.588Z,247.50
2019-04-04T09:47:52.182Z,258.75
2019-04-04T09:48:51.176Z,286.88
2019-04-04T09:49:51.173Z,298.12
2019-04-04T09:50:51.175Z,298.12
2019-04-04T09:51:51.144Z,292.50
2019-04-04T09:52:51.119Z,292.50
2019-04-04T09:53:53.154Z,292.50
2019-04-04T09:54:51.144Z,286.88
2019-04-04T09:55:51.073Z,281.25
2019-04-04T09:56:51.069Z,275.62
2019-04-04T09:57:51.060Z,264.38
2019-04-04T09:58:51.057Z,247.50
2019-04-04T09:59:51.080Z,230.62
2019-04-04T10:00:51.040Z,225.00
2019-04-04T10:01:51.015Z,219.38
2019-04-04T10:02:51.019Z,225.00
2019-04-04T10:03:51.011Z,236.25
2019-04-04T10:04:51.009Z,247.50
2019-04-04T10:05:51.320Z,258.75
2019-04-04T10:06:50.971Z,275.62
2019-04-04T10:07:50.978Z,292.50
2019-04-04T10:08:50.957Z,303.75
2019-04-04T10:09:50.960Z,309.38
2019-04-04T10:10:50.926Z,326.25
2019-04-04T10:11:50.912Z,326.25
2019-04-04T10:12:50.909Z,326.25
2019-04-04T10:13:50.910Z,320.62
2019-04-04T10:14:50.921Z,315.00
2019-04-04T10:15:50.881Z,320.62
2019-04-04T10:16:50.890Z,320.62
2019-04-04T10:17:50.864Z,326.25
2019-04-04T10:18:50.929Z,331.88
2019-04-04T10:19:50.870Z,337.50
2019-04-04T10:20:50.844Z,331.88
2019-04-04T10:21:50.824Z,315.00
2019-04-04T10:22:50.827Z,298.12
2019-04-04T10:23:50.781Z,275.62
2019-04-04T10:24:50.802Z,258.75
2019-04-04T10:25:50.811Z,241.88
2019-04-04T10:26:50.771Z,236.25
2019-04-04T10:27:50.777Z,230.62
2019-04-04T10:28:50.733Z,225.00
2019-04-04T10:29:50.820Z,230.62
2019-04-04T10:30:50.728Z,236.25
2019-04-04T10:31:50.711Z,253.12
2019-04-04T10:32:50.686Z,264.38
2019-04-04T10:33:50.698Z,286.88
2019-04-04T10:34:50.701Z,303.75
2019-04-04T10:35:50.705Z,309.38
2019-04-04T10:36:50.648Z,309.38
2019-04-04T10:37:50.685Z,303.75
2019-04-04T10:38:50.631Z,309.38
2019-04-04T10:39:50.612Z,320.62
2019-04-04T10:40:50.650Z,309.38
2019-04-04T10:41:50.625Z,275.62
2019-04-04T10:42:50.608Z,247.50
2019-04-04T10:43:50.575Z,225.00
2019-04-04T10:44:50.577Z,202.50
2019-04-04T10:45:50.576Z,185.62
2019-04-04T10:46:50.541Z,168.75
2019-04-04T10:47:50.536Z,151.88
2019-04-04T10:48:50.482Z,146.25
2019-04-04T10:49:50.538Z,146.25
2019-04-04T10:50:50.563Z,151.88
2019-04-04T10:51:50.488Z,157.50
2019-04-04T10:52:50.502Z,163.12
2019-04-04T10:53:50.471Z,168.75
2019-04-04T10:54:50.476Z,174.38
2019-04-04T10:55:50.488Z,174.38
2019-04-04T10:56:50.452Z,174.38
2019-04-04T10:57:50.428Z,168.75
2019-04-04T10:58:50.413Z,163.12
2019-04-04T10:59:50.409Z,157.50
2019-04-04T11:00:50.467Z,151.88
2019-04-04T11:01:50.391Z,151.88
2019-04-04T11:02:50.403Z,163.12
2019-04-04T11:03:50.374Z,174.38
2019-04-04T11:04:50.359Z,191.25
2019-04-04T11:05:50.357Z,202.50
2019-04-04T11:06:50.344Z,208.12
2019-04-04T11:07:50.343Z,202.50
2019-04-04T11:08:50.343Z,196.88
2019-04-04T11:09:50.328Z,185.62
2019-04-04T11:10:50.385Z,174.38
2019-04-04T11:11:50.314Z,163.12
2019-04-04T11:12:50.273Z,157.50
2019-04-04T11:13:50.259Z,140.62
2019-04-04T11:14:50.262Z,135.00
2019-04-04T11:15:50.250Z,129.38
2019-04-04T11:16:50.221Z,129.38
2019-04-04T11:17:50.210Z,129.38
2019-04-04T11:18:50.199Z,135.00
2019-04-04T11:19:50.200Z,140.62
2019-04-04T11:20:50.205Z,146.25
2019-04-04T11:21:50.177Z,151.88
2019-04-04T11:22:50.179Z,157.50
2019-04-04T11:23:50.168Z,157.50
2019-04-04T11:24:50.140Z,163.12
2019-04-04T11:25:50.135Z,163.12
2019-04-04T11:26:50.115Z,157.50
2019-04-04T11:27:50.127Z,151.88
2019-04-04T11:28:50.091Z,135.00
2019-04-04T11:29:50.100Z,129.38
2019-04-04T11:30:50.079Z,123.75
2019-04-04T11:31:50.050Z,129.38
2019-04-04T11:32:50.035Z,129.38
2019-04-04T11:33:50.033Z,135.00
2019-04-04T11:34:53.390Z,135.00
2019-04-04T11:35:50.024Z,129.38
2019-04-04T11:36:50.005Z,123.75
2019-04-04T11:37:49.994Z,118.12
2019-04-04T11:38:49.991Z,118.12
2019-04-04T11:39:54.990Z,123.75
2019-04-04T11:40:50.979Z,123.75
2019-04-04T11:41:49.934Z,135.00
2019-04-04T11:42:49.973Z,146.25
2019-04-04T11:43:49.935Z,151.88
2019-04-04T11:44:49.916Z,151.88
2019-04-04T11:45:49.939Z,151.88
2019-04-04T11:46:49.906Z,151.88
2019-04-04T11:47:49.891Z,151.88
2019-04-04T11:48:49.872Z,157.50
2019-04-04T11:49:49.875Z,157.50
2019-04-04T11:50:49.848Z,163.12
2019-04-04T11:51:49.870Z,163.12
2019-04-04T11:52:50.283Z,163.12
2019-04-04T11:53:49.817Z,163.12
2019-04-04T11:54:49.811Z,151.88
2019-04-04T11:55:49.796Z,135.00
2019-04-04T11:56:49.825Z,129.38
2019-04-04T11:57:49.782Z,123.75
2019-04-04T11:58:49.777Z,123.75
2019-04-04T11:59:49.746Z,123.75
2019-04-04T12:00:49.756Z,135.00
2019-04-04T12:01:49.771Z,146.25
2019-04-04T12:02:49.718Z,157.50
2019-04-04T12:03:49.716Z,168.75
2019-04-04T12:04:49.690Z,174.38
2019-04-04T12:05:49.684Z,174.38
2019-04-04T12:06:49.739Z,174.38
2019-04-04T12:07:49.673Z,174.38
2019-04-04T12:08:49.655Z,180.00
2019-04-04T12:09:49.627Z,185.62
2019-04-04T12:10:49.638Z,191.25
2019-04-04T12:11:49.633Z,196.88
2019-04-04T12:12:49.606Z,196.88
2019-04-04T12:13:50.624Z,191.25
2019-04-04T12:14:49.577Z,185.62
2019-04-04T12:15:49.599Z,180.00
2019-04-04T12:16:49.573Z,174.38
2019-04-04T12:17:49.563Z,168.75
2019-04-04T12:18:49.560Z,163.12
2019-04-04T12:19:49.535Z,163.12
2019-04-04T12:20:49.545Z,163.12
2019-04-04T12:21:49.512Z,163.12
2019-04-04T12:22:49.498Z,157.50
2019-04-04T12:23:51.416Z,157.50
2019-04-04T12:24:49.492Z,157.50
2019-04-04T12:25:49.497Z,168.75
2019-04-04T12:26:49.444Z,185.62
2019-04-04T12:27:49.463Z,196.88
2019-04-04T12:28:49.419Z,202.50
2019-04-04T12:29:49.463Z,202.50
2019-04-04T12:30:49.416Z,191.25
2019-04-04T12:31:49.395Z,180.00
2019-04-04T12:32:49.405Z,163.12
2019-04-04T12:33:49.415Z,157.50
2019-04-04T12:34:49.357Z,157.50
2019-04-04T12:35:52.193Z,157.50
2019-04-04T12:36:49.337Z,163.12
2019-04-04T12:37:49.349Z,157.50
2019-04-04T12:38:49.350Z,157.50
2019-04-04T12:39:49.340Z,157.50
2019-04-04T12:40:49.319Z,151.88
2019-04-04T12:41:49.277Z,151.88
2019-04-04T12:42:49.286Z,151.88
2019-04-04T12:43:49.269Z,151.88
2019-04-04T12:44:49.243Z,163.12
2019-04-04T12:45:49.296Z,168.75
2019-04-04T12:46:49.224Z,168.75
2019-04-04T12:47:49.225Z,163.12
2019-04-04T12:48:49.216Z,157.50
2019-04-04T12:49:49.221Z,157.50
2019-04-04T12:50:49.190Z,151.88
2019-04-04T12:51:49.209Z,151.88